Monte Rio, CA (95462)

5:35 PM PDT on September 19, 2014 (GMT -0700)
The Terraces, Monte Rio | Change Station
CLOSE
Current Station
Personal Weather Station
Location: Monte Rio, CA
Elevation: 36 ft
Nearby Weather Stations

Elev 36 ft 38.47 °N, 123.01 °W | Updated 2 minutes ago

Clear
Clear
63.2 °F
Feels Like 63.2 °F
N
0.0
Wind Variable Wind from North
Gusts 1.0 mph

Today
High -- | Low -- °F
--% Chance of Precip.
Yesterday
High -- | Low -- °F
Precip. -- in
6:57 AM 7:13 PM
Waning Crescent, 16% visible
Pressure 29.81 in
Visibility 10.0 miles
Clouds Clear
Dew Point 61 °F
Humidity 94%
Rainfall 0.00 in
Snow Depth 0 in , 0 in , 0 in
UV 2 out of 12
Pollen 4.70 out of 12
Air Quality Not available.
Flu Activity Not available.
METAR KSTS 192353Z 16009KT 10SM CLR 23/16 A2982 RMK AO2 SLP092 T02330161 10267 20167 55009

More Conditions Fewer Conditions

Pressure 29.81 in
Visibility 10.0 miles
Clouds Clear
Dew Point 61 °F
Humidity 94%
Rainfall 0.00 in
Snow Depth 0 in , 0 in , 0 in
UV 2 out of 12
Pollen 4.70 out of 12
Air Quality Not available.
Flu Activity Not available.
METAR KSTS 192353Z 16009KT 10SM CLR 23/16 A2982 RMK AO2 SLP092 T02330161 10267 20167 55009

More Conditions Fewer Conditions

10-Day Weather Forecast

Almanac

Astronomy

Sep. 19, 2014 Rise Set
Actual Time 6:57 AM PDT 7:13 PM PDT
Civil Twilight 6:30 AM PDT 7:40 PM PDT
Nautical Twilight 5:59 AM PDT 8:11 PM PDT
Astronomical Twilight 5:28 AM PDT 8:42 PM PDT
Moon 2:49 AM PDT (9/19) 4:43 PM PDT (9/19)
Length of Visible Light 13h 09m
Length of Day
12h 16m
Tomorrow will be 2m 29s shorter.
Waning Crescent, 16% of the Moon is Illuminated
Today
Waning Crescent
Sep 24
New
Oct 1
First Quarter
Oct 8
Full
Oct 15
Last Quarter

Today's Extremes

State Highs State Lows

Community

WunderPhotos

Upload Photos

1,754,744 photos uploaded!

WunderBlogs® & News

Nearby

Air Quality

  Air Quality AQ Index Pollutant
Friday Good
PM2.5
Saturday Moderate
PM2.5
Sunday Moderate
PM2.5
Monday Moderate
PM2.5
Tuesday Moderate
PM2.5
Wednesday Moderate
PM2.5

Snow Depth

Station Depth Elevation
Spratt Creek 0 in 6200 ft
Ward Creek #3 0 in 6750 ft
Rubicon #2 0 in 7500 ft
Burnside Lake 0 in 8139 ft
Adin Mountain 1 in 6200 ft

Earthquake Activity

City Distance Mag. Time & Date
Livermore, California 88 miles 2.6 3:37 AM PDT
2014-09-19
The Geysers, California 25 miles 2.5 11:29 PM PDT
2014-09-17
Cobb, California 27 miles 2.7 1:23 PM PDT
2014-09-16
Minimum magnitude displayed is 2.5.

Coastal Water Temperatures

Place Temperature
Point Reyes, CA 66.0 °F
Arena Cove, CA 62.1 °F
San Francisco, CA 66.0 °F
Richmond, CA 66.9 °F

Nearby Weather Stations